sensor_id;sensor_type;location;lat;lon;timestamp;P1;durP1;ratioP1;P2;durP2;ratioP2
787;SDS011;16074;42.708;23.312;2023-07-31T00:01:29;5.80;;;5.47;;
787;SDS011;16074;42.708;23.312;2023-07-31T00:03:58;8.00;;;6.17;;
787;SDS011;16074;42.708;23.312;2023-07-31T00:06:27;6.87;;;6.37;;
787;SDS011;16074;42.708;23.312;2023-07-31T00:08:55;6.27;;;5.87;;
787;SDS011;16074;42.708;23.312;2023-07-31T00:11:23;5.43;;;5.03;;
787;SDS011;16074;42.708;23.312;2023-07-31T00:13:52;7.67;;;7.10;;
787;SDS011;16074;42.708;23.312;2023-07-31T00:16:22;6.30;;;5.90;;
787;SDS011;16074;42.708;23.312;2023-07-31T00:18:50;5.90;;;5.60;;
787;SDS011;16074;42.708;23.312;2023-07-31T00:21:19;7.20;;;6.60;;
787;SDS011;16074;42.708;23.312;2023-07-31T00:23:47;6.50;;;6.10;;
787;SDS011;16074;42.708;23.312;2023-07-31T00:26:15;6.33;;;5.93;;
787;SDS011;16074;42.708;23.312;2023-07-31T00:28:44;6.07;;;5.77;;
787;SDS011;16074;42.708;23.312;2023-07-31T00:31:13;5.27;;;4.97;;
787;SDS011;16074;42.708;23.312;2023-07-31T00:33:43;6.03;;;5.63;;
787;SDS011;16074;42.708;23.312;2023-07-31T00:36:11;6.90;;;6.40;;
787;SDS011;16074;42.708;23.312;2023-07-31T00:38:39;6.47;;;5.93;;
787;SDS011;16074;42.708;23.312;2023-07-31T00:41:08;6.73;;;6.33;;
787;SDS011;16074;42.708;23.312;2023-07-31T00:43:36;7.20;;;6.70;;
787;SDS011;16074;42.708;23.312;2023-07-31T00:46:04;7.80;;;7.30;;
787;SDS011;16074;42.708;23.312;2023-07-31T00:48:32;8.30;;;7.80;;
787;SDS011;16074;42.708;23.312;2023-07-31T00:51:04;8.73;;;8.13;;
787;SDS011;16074;42.708;23.312;2023-07-31T00:53:34;8.37;;;7.77;;
787;SDS011;16074;42.708;23.312;2023-07-31T00:56:03;10.10;;;9.40;;
787;SDS011;16074;42.708;23.312;2023-07-31T00:58:32;9.60;;;8.80;;
787;SDS011;16074;42.708;23.312;2023-07-31T01:01:00;11.60;;;10.70;;
787;SDS011;16074;42.708;23.312;2023-07-31T01:03:29;11.97;;;11.07;;
787;SDS011;16074;42.708;23.312;2023-07-31T01:06:01;13.83;;;12.83;;
787;SDS011;16074;42.708;23.312;2023-07-31T01:08:40;14.23;;;13.03;;
787;SDS011;16074;42.708;23.312;2023-07-31T01:11:15;15.10;;;13.73;;
787;SDS011;16074;42.708;23.312;2023-07-31T01:13:47;15.63;;;14.43;;
787;SDS011;16074;42.708;23.312;2023-07-31T01:16:15;16.40;;;15.10;;
787;SDS011;16074;42.708;23.312;2023-07-31T01:18:44;17.20;;;15.80;;
787;SDS011;16074;42.708;23.312;2023-07-31T01:21:18;17.03;;;15.63;;
787;SDS011;16074;42.708;23.312;2023-07-31T01:24:08;25.20;;;18.37;;
787;SDS011;16074;42.708;23.312;2023-07-31T01:26:51;20.33;;;18.73;;
787;SDS011;16074;42.708;23.312;2023-07-31T01:29:24;21.07;;;19.20;;
787;SDS011;16074;42.708;23.312;2023-07-31T01:32:01;21.07;;;19.10;;
787;SDS011;16074;42.708;23.312;2023-07-31T01:34:30;22.07;;;20.17;;
787;SDS011;16074;42.708;23.312;2023-07-31T01:37:00;24.47;;;22.27;;
787;SDS011;16074;42.708;23.312;2023-07-31T01:39:28;23.30;;;21.40;;
787;SDS011;16074;42.708;23.312;2023-07-31T01:41:58;22.70;;;20.80;;
787;SDS011;16074;42.708;23.312;2023-07-31T01:44:27;21.20;;;19.30;;
787;SDS011;16074;42.708;23.312;2023-07-31T01:46:55;21.70;;;19.70;;
787;SDS011;16074;42.708;23.312;2023-07-31T01:49:26;23.27;;;21.17;;
787;SDS011;16074;42.708;23.312;2023-07-31T01:51:54;24.43;;;22.30;;
787;SDS011;16074;42.708;23.312;2023-07-31T01:54:22;24.87;;;22.57;;
787;SDS011;16074;42.708;23.312;2023-07-31T01:56:51;25.93;;;23.57;;
787;SDS011;16074;42.708;23.312;2023-07-31T01:59:20;26.13;;;23.83;;
787;SDS011;16074;42.708;23.312;2023-07-31T02:01:49;26.30;;;24.00;;
787;SDS011;16074;42.708;23.312;2023-07-31T02:04:20;27.33;;;24.87;;
787;SDS011;16074;42.708;23.312;2023-07-31T02:06:48;26.10;;;23.70;;
787;SDS011;16074;42.708;23.312;2023-07-31T02:09:17;28.23;;;25.70;;
787;SDS011;16074;42.708;23.312;2023-07-31T02:11:45;28.50;;;25.80;;
787;SDS011;16074;42.708;23.312;2023-07-31T02:14:14;28.90;;;26.20;;
787;SDS011;16074;42.708;23.312;2023-07-31T02:16:44;28.70;;;26.10;;
787;SDS011;16074;42.708;23.312;2023-07-31T02:19:12;30.37;;;27.80;;
787;SDS011;16074;42.708;23.312;2023-07-31T02:21:41;28.13;;;25.43;;
787;SDS011;16074;42.708;23.312;2023-07-31T02:24:09;30.33;;;27.43;;
787;SDS011;16074;42.708;23.312;2023-07-31T02:26:38;29.20;;;26.40;;
787;SDS011;16074;42.708;23.312;2023-07-31T02:29:07;29.73;;;26.93;;
787;SDS011;16074;42.708;23.312;2023-07-31T02:31:35;28.80;;;26.20;;
787;SDS011;16074;42.708;23.312;2023-07-31T02:34:06;28.80;;;26.27;;
787;SDS011;16074;42.708;23.312;2023-07-31T02:36:34;30.43;;;27.43;;
787;SDS011;16074;42.708;23.312;2023-07-31T02:39:03;29.37;;;26.57;;
787;SDS011;16074;42.708;23.312;2023-07-31T02:41:31;30.30;;;27.53;;
787;SDS011;16074;42.708;23.312;2023-07-31T02:44:01;28.80;;;25.87;;
787;SDS011;16074;42.708;23.312;2023-07-31T02:46:29;29.20;;;26.40;;
787;SDS011;16074;42.708;23.312;2023-07-31T02:48:58;30.70;;;27.97;;
787;SDS011;16074;42.708;23.312;2023-07-31T02:51:28;30.40;;;27.37;;
787;SDS011;16074;42.708;23.312;2023-07-31T02:53:56;28.00;;;25.60;;
787;SDS011;16074;42.708;23.312;2023-07-31T02:56:24;29.57;;;26.70;;
787;SDS011;16074;42.708;23.312;2023-07-31T02:58:53;29.73;;;27.17;;
787;SDS011;16074;42.708;23.312;2023-07-31T03:01:21;28.17;;;25.17;;
787;SDS011;16074;42.708;23.312;2023-07-31T03:03:49;31.10;;;28.37;;
787;SDS011;16074;42.708;23.312;2023-07-31T03:06:18;29.47;;;26.77;;
787;SDS011;16074;42.708;23.312;2023-07-31T03:08:48;28.90;;;26.10;;
787;SDS011;16074;42.708;23.312;2023-07-31T03:11:16;30.23;;;27.30;;
787;SDS011;16074;42.708;23.312;2023-07-31T03:13:45;28.03;;;25.43;;
787;SDS011;16074;42.708;23.312;2023-07-31T03:16:13;29.30;;;26.60;;
787;SDS011;16074;42.708;23.312;2023-07-31T03:18:41;29.30;;;26.60;;
787;SDS011;16074;42.708;23.312;2023-07-31T03:21:10;29.87;;;27.23;;
787;SDS011;16074;42.708;23.312;2023-07-31T03:23:38;31.60;;;28.20;;
787;SDS011;16074;42.708;23.312;2023-07-31T03:26:09;31.40;;;28.37;;
787;SDS011;16074;42.708;23.312;2023-07-31T03:28:37;29.77;;;27.00;;
787;SDS011;16074;42.708;23.312;2023-07-31T03:31:05;28.97;;;26.40;;
787;SDS011;16074;42.708;23.312;2023-07-31T03:33:35;31.07;;;28.33;;
787;SDS011;16074;42.708;23.312;2023-07-31T03:36:03;30.60;;;27.70;;
787;SDS011;16074;42.708;23.312;2023-07-31T03:38:33;31.27;;;28.47;;
787;SDS011;16074;42.708;23.312;2023-07-31T03:41:02;29.57;;;26.77;;
787;SDS011;16074;42.708;23.312;2023-07-31T03:43:31;31.43;;;27.67;;
787;SDS011;16074;42.708;23.312;2023-07-31T03:46:00;30.57;;;27.50;;
787;SDS011;16074;42.708;23.312;2023-07-31T03:48:30;32.23;;;27.67;;
787;SDS011;16074;42.708;23.312;2023-07-31T03:50:58;30.53;;;27.73;;
787;SDS011;16074;42.708;23.312;2023-07-31T03:53:26;30.03;;;27.13;;
787;SDS011;16074;42.708;23.312;2023-07-31T03:55:55;29.67;;;27.00;;
787;SDS011;16074;42.708;23.312;2023-07-31T03:58:23;29.63;;;26.60;;
787;SDS011;16074;42.708;23.312;2023-07-31T04:00:52;29.27;;;26.43;;
787;SDS011;16074;42.708;23.312;2023-07-31T04:03:21;31.20;;;28.10;;
787;SDS011;16074;42.708;23.312;2023-07-31T04:05:49;29.67;;;26.67;;
787;SDS011;16074;42.708;23.312;2023-07-31T04:08:17;32.67;;;29.63;;
787;SDS011;16074;42.708;23.312;2023-07-31T04:10:45;30.47;;;27.50;;
787;SDS011;16074;42.708;23.312;2023-07-31T04:13:14;29.83;;;26.80;;
787;SDS011;16074;42.708;23.312;2023-07-31T04:15:42;31.70;;;28.50;;
787;SDS011;16074;42.708;23.312;2023-07-31T04:18:16;28.73;;;25.73;;
787;SDS011;16074;42.708;23.312;2023-07-31T04:20:45;28.63;;;25.83;;
787;SDS011;16074;42.708;23.312;2023-07-31T04:23:13;29.10;;;26.40;;
787;SDS011;16074;42.708;23.312;2023-07-31T04:25:41;31.57;;;28.50;;
787;SDS011;16074;42.708;23.312;2023-07-31T04:28:09;28.67;;;25.87;;
787;SDS011;16074;42.708;23.312;2023-07-31T04:30:38;29.10;;;26.30;;
787;SDS011;16074;42.708;23.312;2023-07-31T04:33:07;31.90;;;28.60;;
787;SDS011;16074;42.708;23.312;2023-07-31T04:35:36;29.83;;;26.93;;
787;SDS011;16074;42.708;23.312;2023-07-31T04:38:05;28.50;;;25.63;;
787;SDS011;16074;42.708;23.312;2023-07-31T04:40:33;28.93;;;26.13;;
787;SDS011;16074;42.708;23.312;2023-07-31T04:43:01;29.03;;;26.33;;
787;SDS011;16074;42.708;23.312;2023-07-31T04:45:29;28.63;;;26.00;;
787;SDS011;16074;42.708;23.312;2023-07-31T04:47:58;28.47;;;25.77;;
787;SDS011;16074;42.708;23.312;2023-07-31T04:50:26;27.73;;;25.13;;
787;SDS011;16074;42.708;23.312;2023-07-31T04:52:56;29.10;;;26.40;;
787;SDS011;16074;42.708;23.312;2023-07-31T04:55:25;27.77;;;24.97;;
787;SDS011;16074;42.708;23.312;2023-07-31T04:57:53;28.03;;;25.23;;
787;SDS011;16074;42.708;23.312;2023-07-31T05:00:21;29.27;;;26.27;;
787;SDS011;16074;42.708;23.312;2023-07-31T05:02:50;27.97;;;25.37;;
787;SDS011;16074;42.708;23.312;2023-07-31T05:05:18;27.40;;;24.70;;
787;SDS011;16074;42.708;23.312;2023-07-31T05:07:46;26.97;;;24.37;;
787;SDS011;16074;42.708;23.312;2023-07-31T05:10:16;26.90;;;24.30;;
787;SDS011;16074;42.708;23.312;2023-07-31T05:12:44;25.17;;;22.90;;
787;SDS011;16074;42.708;23.312;2023-07-31T05:15:13;27.60;;;25.10;;
787;SDS011;16074;42.708;23.312;2023-07-31T05:17:42;28.30;;;25.80;;
787;SDS011;16074;42.708;23.312;2023-07-31T05:20:10;24.00;;;21.90;;
787;SDS011;16074;42.708;23.312;2023-07-31T05:22:39;24.30;;;21.90;;
787;SDS011;16074;42.708;23.312;2023-07-31T05:25:08;25.50;;;23.20;;
787;SDS011;16074;42.708;23.312;2023-07-31T05:27:37;22.80;;;20.90;;
787;SDS011;16074;42.708;23.312;2023-07-31T05:30:06;24.00;;;22.00;;
787;SDS011;16074;42.708;23.312;2023-07-31T05:32:35;24.13;;;21.70;;
787;SDS011;16074;42.708;23.312;2023-07-31T05:35:04;23.33;;;21.37;;
787;SDS011;16074;42.708;23.312;2023-07-31T05:37:33;21.63;;;19.80;;
787;SDS011;16074;42.708;23.312;2023-07-31T05:40:01;20.23;;;18.50;;
787;SDS011;16074;42.708;23.312;2023-07-31T05:42:30;19.80;;;18.20;;
787;SDS011;16074;42.708;23.312;2023-07-31T05:45:00;20.53;;;18.57;;
787;SDS011;16074;42.708;23.312;2023-07-31T05:47:28;20.50;;;18.70;;
787;SDS011;16074;42.708;23.312;2023-07-31T05:49:56;17.50;;;16.00;;
787;SDS011;16074;42.708;23.312;2023-07-31T05:52:24;17.63;;;16.20;;
787;SDS011;16074;42.708;23.312;2023-07-31T05:54:53;16.40;;;15.00;;
787;SDS011;16074;42.708;23.312;2023-07-31T05:57:21;16.80;;;15.20;;
787;SDS011;16074;42.708;23.312;2023-07-31T05:59:49;17.40;;;15.97;;
787;SDS011;16074;42.708;23.312;2023-07-31T06:02:21;14.33;;;13.23;;
787;SDS011;16074;42.708;23.312;2023-07-31T06:04:49;14.00;;;12.90;;
787;SDS011;16074;42.708;23.312;2023-07-31T06:07:18;13.33;;;12.13;;
787;SDS011;16074;42.708;23.312;2023-07-31T06:09:46;13.23;;;12.23;;
787;SDS011;16074;42.708;23.312;2023-07-31T06:12:14;13.70;;;12.60;;
787;SDS011;16074;42.708;23.312;2023-07-31T06:14:45;12.47;;;11.47;;
787;SDS011;16074;42.708;23.312;2023-07-31T06:17:13;12.83;;;11.83;;
787;SDS011;16074;42.708;23.312;2023-07-31T06:19:42;12.27;;;11.17;;
787;SDS011;16074;42.708;23.312;2023-07-31T06:22:11;11.80;;;10.87;;
787;SDS011;16074;42.708;23.312;2023-07-31T06:24:39;10.83;;;9.93;;
787;SDS011;16074;42.708;23.312;2023-07-31T06:27:07;10.47;;;9.63;;
787;SDS011;16074;42.708;23.312;2023-07-31T06:29:35;10.40;;;8.90;;
787;SDS011;16074;42.708;23.312;2023-07-31T06:32:04;10.00;;;9.10;;
787;SDS011;16074;42.708;23.312;2023-07-31T06:34:33;9.50;;;8.70;;
787;SDS011;16074;42.708;23.312;2023-07-31T06:37:02;10.27;;;9.37;;
787;SDS011;16074;42.708;23.312;2023-07-31T06:39:31;10.30;;;9.30;;
787;SDS011;16074;42.708;23.312;2023-07-31T06:41:59;9.83;;;9.17;;
787;SDS011;16074;42.708;23.312;2023-07-31T06:44:28;10.17;;;9.27;;
787;SDS011;16074;42.708;23.312;2023-07-31T06:46:56;11.30;;;8.37;;
787;SDS011;16074;42.708;23.312;2023-07-31T06:49:24;10.07;;;9.17;;
787;SDS011;16074;42.708;23.312;2023-07-31T06:51:53;7.80;;;7.10;;
787;SDS011;16074;42.708;23.312;2023-07-31T06:54:22;7.47;;;6.80;;
787;SDS011;16074;42.708;23.312;2023-07-31T06:56:51;7.87;;;7.30;;
787;SDS011;16074;42.708;23.312;2023-07-31T06:59:19;8.57;;;7.87;;
787;SDS011;16074;42.708;23.312;2023-07-31T07:01:47;8.57;;;7.97;;
787;SDS011;16074;42.708;23.312;2023-07-31T07:04:15;8.00;;;7.40;;
787;SDS011;16074;42.708;23.312;2023-07-31T07:06:44;7.60;;;7.10;;
787;SDS011;16074;42.708;23.312;2023-07-31T07:09:12;7.30;;;6.70;;
787;SDS011;16074;42.708;23.312;2023-07-31T07:11:42;14.40;;;7.87;;
787;SDS011;16074;42.708;23.312;2023-07-31T07:14:10;7.20;;;6.50;;
787;SDS011;16074;42.708;23.312;2023-07-31T07:16:38;7.20;;;6.70;;
787;SDS011;16074;42.708;23.312;2023-07-31T07:19:08;7.87;;;7.17;;
787;SDS011;16074;42.708;23.312;2023-07-31T07:21:37;6.80;;;6.40;;
787;SDS011;16074;42.708;23.312;2023-07-31T07:24:05;7.03;;;6.53;;
787;SDS011;16074;42.708;23.312;2023-07-31T07:26:33;8.43;;;7.03;;
787;SDS011;16074;42.708;23.312;2023-07-31T07:29:03;6.27;;;5.87;;
787;SDS011;16074;42.708;23.312;2023-07-31T07:31:33;6.20;;;5.80;;
787;SDS011;16074;42.708;23.312;2023-07-31T07:34:02;6.10;;;5.70;;
787;SDS011;16074;42.708;23.312;2023-07-31T07:36:31;12.63;;;8.03;;
787;SDS011;16074;42.708;23.312;2023-07-31T07:38:59;6.30;;;5.70;;
787;SDS011;16074;42.708;23.312;2023-07-31T07:41:28;9.93;;;6.27;;
787;SDS011;16074;42.708;23.312;2023-07-31T07:43:56;6.93;;;6.07;;
787;SDS011;16074;42.708;23.312;2023-07-31T07:46:26;6.23;;;5.80;;
787;SDS011;16074;42.708;23.312;2023-07-31T07:48:54;6.87;;;6.13;;
787;SDS011;16074;42.708;23.312;2023-07-31T07:51:23;5.80;;;5.40;;
787;SDS011;16074;42.708;23.312;2023-07-31T07:53:51;5.07;;;4.77;;
787;SDS011;16074;42.708;23.312;2023-07-31T07:56:19;6.10;;;5.60;;
787;SDS011;16074;42.708;23.312;2023-07-31T07:58:50;6.20;;;5.80;;
787;SDS011;16074;42.708;23.312;2023-07-31T08:01:18;5.50;;;5.20;;
787;SDS011;16074;42.708;23.312;2023-07-31T08:03:48;6.20;;;5.80;;
787;SDS011;16074;42.708;23.312;2023-07-31T08:06:16;7.00;;;6.30;;
787;SDS011;16074;42.708;23.312;2023-07-31T08:08:44;8.77;;;6.17;;
787;SDS011;16074;42.708;23.312;2023-07-31T08:11:13;6.73;;;6.23;;
787;SDS011;16074;42.708;23.312;2023-07-31T08:13:41;9.90;;;7.20;;
787;SDS011;16074;42.708;23.312;2023-07-31T08:16:09;6.67;;;5.57;;
787;SDS011;16074;42.708;23.312;2023-07-31T08:18:38;6.57;;;6.07;;
787;SDS011;16074;42.708;23.312;2023-07-31T08:21:08;6.63;;;5.80;;
787;SDS011;16074;42.708;23.312;2023-07-31T08:23:37;6.23;;;5.73;;
787;SDS011;16074;42.708;23.312;2023-07-31T08:26:05;5.90;;;5.50;;
787;SDS011;16074;42.708;23.312;2023-07-31T08:28:33;5.90;;;5.50;;
787;SDS011;16074;42.708;23.312;2023-07-31T08:31:03;5.50;;;5.20;;
787;SDS011;16074;42.708;23.312;2023-07-31T08:33:31;5.57;;;5.20;;
787;SDS011;16074;42.708;23.312;2023-07-31T08:36:00;5.80;;;5.40;;
787;SDS011;16074;42.708;23.312;2023-07-31T08:38:30;5.70;;;5.40;;
787;SDS011;16074;42.708;23.312;2023-07-31T08:40:58;5.87;;;5.47;;
787;SDS011;16074;42.708;23.312;2023-07-31T08:43:27;4.93;;;4.50;;
787;SDS011;16074;42.708;23.312;2023-07-31T08:45:55;6.23;;;5.83;;
787;SDS011;16074;42.708;23.312;2023-07-31T08:48:24;5.10;;;4.70;;
787;SDS011;16074;42.708;23.312;2023-07-31T08:50:53;5.50;;;5.10;;
787;SDS011;16074;42.708;23.312;2023-07-31T08:53:22;63.17;;;18.80;;
787;SDS011;16074;42.708;23.312;2023-07-31T08:55:52;4.60;;;4.40;;
787;SDS011;16074;42.708;23.312;2023-07-31T08:58:21;5.87;;;5.47;;
787;SDS011;16074;42.708;23.312;2023-07-31T09:00:51;5.20;;;4.80;;
787;SDS011;16074;42.708;23.312;2023-07-31T09:03:21;5.17;;;4.77;;
787;SDS011;16074;42.708;23.312;2023-07-31T09:05:52;4.40;;;4.10;;
787;SDS011;16074;42.708;23.312;2023-07-31T09:08:22;4.30;;;4.00;;
787;SDS011;16074;42.708;23.312;2023-07-31T09:10:53;8.80;;;4.80;;
787;SDS011;16074;42.708;23.312;2023-07-31T09:13:22;5.20;;;4.77;;
787;SDS011;16074;42.708;23.312;2023-07-31T09:15:50;6.47;;;4.73;;
787;SDS011;16074;42.708;23.312;2023-07-31T09:18:18;5.23;;;4.87;;
787;SDS011;16074;42.708;23.312;2023-07-31T09:21:00;5.23;;;4.83;;
787;SDS011;16074;42.708;23.312;2023-07-31T09:23:40;5.57;;;5.17;;
787;SDS011;16074;42.708;23.312;2023-07-31T09:26:10;5.30;;;5.00;;
787;SDS011;16074;42.708;23.312;2023-07-31T09:28:38;5.37;;;5.07;;
787;SDS011;16074;42.708;23.312;2023-07-31T09:31:07;5.87;;;5.47;;
787;SDS011;16074;42.708;23.312;2023-07-31T09:33:35;5.90;;;4.50;;
787;SDS011;16074;42.708;23.312;2023-07-31T09:36:22;4.67;;;4.37;;
787;SDS011;16074;42.708;23.312;2023-07-31T09:38:50;4.20;;;4.00;;
787;SDS011;16074;42.708;23.312;2023-07-31T09:41:20;4.63;;;4.43;;
787;SDS011;16074;42.708;23.312;2023-07-31T09:43:52;4.67;;;4.40;;
787;SDS011;16074;42.708;23.312;2023-07-31T09:46:21;4.67;;;4.37;;
787;SDS011;16074;42.708;23.312;2023-07-31T09:48:49;3.87;;;3.67;;
787;SDS011;16074;42.708;23.312;2023-07-31T09:51:24;4.80;;;4.50;;
787;SDS011;16074;42.708;23.312;2023-07-31T09:53:53;3.90;;;3.70;;
787;SDS011;16074;42.708;23.312;2023-07-31T09:56:23;4.43;;;4.10;;
787;SDS011;16074;42.708;23.312;2023-07-31T09:58:53;4.10;;;3.80;;
787;SDS011;16074;42.708;23.312;2023-07-31T10:01:23;4.00;;;3.70;;
787;SDS011;16074;42.708;23.312;2023-07-31T10:03:51;4.37;;;3.90;;
787;SDS011;16074;42.708;23.312;2023-07-31T10:06:20;4.30;;;3.90;;
787;SDS011;16074;42.708;23.312;2023-07-31T10:08:49;3.50;;;3.30;;
787;SDS011;16074;42.708;23.312;2023-07-31T10:11:20;3.83;;;3.60;;
787;SDS011;16074;42.708;23.312;2023-07-31T10:13:51;3.93;;;3.63;;
787;SDS011;16074;42.708;23.312;2023-07-31T10:16:21;4.03;;;3.73;;
787;SDS011;16074;42.708;23.312;2023-07-31T10:18:50;3.90;;;3.70;;
787;SDS011;16074;42.708;23.312;2023-07-31T10:21:20;4.53;;;3.37;;
787;SDS011;16074;42.708;23.312;2023-07-31T10:23:48;3.77;;;3.57;;
787;SDS011;16074;42.708;23.312;2023-07-31T10:26:18;4.53;;;2.90;;
787;SDS011;16074;42.708;23.312;2023-07-31T10:28:47;3.20;;;3.10;;
787;SDS011;16074;42.708;23.312;2023-07-31T10:31:19;4.10;;;3.80;;
787;SDS011;16074;42.708;23.312;2023-07-31T10:33:49;4.00;;;3.50;;
787;SDS011;16074;42.708;23.312;2023-07-31T10:36:18;4.10;;;3.90;;
787;SDS011;16074;42.708;23.312;2023-07-31T10:38:48;5.00;;;4.60;;
787;SDS011;16074;42.708;23.312;2023-07-31T10:41:17;4.53;;;3.23;;
787;SDS011;16074;42.708;23.312;2023-07-31T10:43:46;3.60;;;3.40;;
787;SDS011;16074;42.708;23.312;2023-07-31T10:46:14;3.23;;;3.10;;
787;SDS011;16074;42.708;23.312;2023-07-31T10:48:44;3.93;;;3.63;;
787;SDS011;16074;42.708;23.312;2023-07-31T10:51:12;4.17;;;3.87;;
787;SDS011;16074;42.708;23.312;2023-07-31T10:53:42;3.53;;;3.40;;
787;SDS011;16074;42.708;23.312;2023-07-31T10:56:10;3.50;;;3.30;;
787;SDS011;16074;42.708;23.312;2023-07-31T10:58:41;3.70;;;3.40;;
787;SDS011;16074;42.708;23.312;2023-07-31T11:01:12;3.27;;;3.17;;
787;SDS011;16074;42.708;23.312;2023-07-31T11:03:41;3.17;;;3.03;;
787;SDS011;16074;42.708;23.312;2023-07-31T11:06:12;3.63;;;3.43;;
787;SDS011;16074;42.708;23.312;2023-07-31T11:08:45;3.00;;;2.90;;
787;SDS011;16074;42.708;23.312;2023-07-31T11:11:15;3.20;;;3.10;;
787;SDS011;16074;42.708;23.312;2023-07-31T11:13:45;3.30;;;3.10;;
787;SDS011;16074;42.708;23.312;2023-07-31T11:16:16;3.37;;;3.07;;
787;SDS011;16074;42.708;23.312;2023-07-31T11:18:46;3.53;;;3.43;;
787;SDS011;16074;42.708;23.312;2023-07-31T11:21:17;3.40;;;3.20;;
787;SDS011;16074;42.708;23.312;2023-07-31T11:23:47;3.20;;;2.90;;
787;SDS011;16074;42.708;23.312;2023-07-31T11:26:16;3.27;;;3.07;;
787;SDS011;16074;42.708;23.312;2023-07-31T11:28:46;2.67;;;2.57;;
787;SDS011;16074;42.708;23.312;2023-07-31T11:31:15;3.27;;;2.83;;
787;SDS011;16074;42.708;23.312;2023-07-31T11:33:44;3.40;;;3.10;;
787;SDS011;16074;42.708;23.312;2023-07-31T11:36:14;4.20;;;3.90;;
787;SDS011;16074;42.708;23.312;2023-07-31T11:38:44;4.23;;;4.03;;
787;SDS011;16074;42.708;23.312;2023-07-31T11:41:13;4.73;;;4.43;;
787;SDS011;16074;42.708;23.312;2023-07-31T11:43:42;4.37;;;4.07;;
787;SDS011;16074;42.708;23.312;2023-07-31T11:46:11;4.17;;;3.87;;
787;SDS011;16074;42.708;23.312;2023-07-31T11:48:41;4.33;;;4.03;;
787;SDS011;16074;42.708;23.312;2023-07-31T11:51:10;4.30;;;3.90;;
787;SDS011;16074;42.708;23.312;2023-07-31T11:53:40;4.17;;;3.73;;
787;SDS011;16074;42.708;23.312;2023-07-31T11:56:13;4.00;;;3.80;;
787;SDS011;16074;42.708;23.312;2023-07-31T11:58:45;4.53;;;4.13;;
787;SDS011;16074;42.708;23.312;2023-07-31T12:01:14;4.90;;;4.50;;
787;SDS011;16074;42.708;23.312;2023-07-31T12:03:46;4.77;;;4.53;;
787;SDS011;16074;42.708;23.312;2023-07-31T12:06:15;5.80;;;5.30;;
787;SDS011;16074;42.708;23.312;2023-07-31T12:08:43;6.70;;;6.30;;
787;SDS011;16074;42.708;23.312;2023-07-31T12:11:13;7.43;;;6.93;;
787;SDS011;16074;42.708;23.312;2023-07-31T12:13:41;7.40;;;6.80;;
787;SDS011;16074;42.708;23.312;2023-07-31T12:16:09;6.50;;;6.20;;
787;SDS011;16074;42.708;23.312;2023-07-31T12:18:38;7.00;;;6.50;;
787;SDS011;16074;42.708;23.312;2023-07-31T12:21:07;6.53;;;6.13;;
787;SDS011;16074;42.708;23.312;2023-07-31T12:23:38;7.20;;;6.80;;
787;SDS011;16074;42.708;23.312;2023-07-31T12:26:09;7.13;;;6.73;;
787;SDS011;16074;42.708;23.312;2023-07-31T12:28:41;7.90;;;7.40;;
787;SDS011;16074;42.708;23.312;2023-07-31T12:31:11;6.33;;;5.93;;
787;SDS011;16074;42.708;23.312;2023-07-31T12:33:41;6.80;;;6.40;;
787;SDS011;16074;42.708;23.312;2023-07-31T12:36:10;6.30;;;5.93;;
787;SDS011;16074;42.708;23.312;2023-07-31T12:38:39;6.50;;;6.00;;
787;SDS011;16074;42.708;23.312;2023-07-31T12:41:08;5.90;;;5.50;;
787;SDS011;16074;42.708;23.312;2023-07-31T12:43:36;7.63;;;6.83;;
787;SDS011;16074;42.708;23.312;2023-07-31T12:46:07;8.07;;;7.53;;
787;SDS011;16074;42.708;23.312;2023-07-31T12:48:36;7.87;;;7.43;;
787;SDS011;16074;42.708;23.312;2023-07-31T12:51:05;8.37;;;7.77;;
787;SDS011;16074;42.708;23.312;2023-07-31T12:53:34;8.00;;;7.30;;
787;SDS011;16074;42.708;23.312;2023-07-31T12:56:03;8.47;;;7.87;;
787;SDS011;16074;42.708;23.312;2023-07-31T12:58:32;8.20;;;7.17;;
787;SDS011;16074;42.708;23.312;2023-07-31T13:01:00;8.07;;;7.53;;
787;SDS011;16074;42.708;23.312;2023-07-31T13:03:30;8.60;;;8.10;;
787;SDS011;16074;42.708;23.312;2023-07-31T13:05:58;8.27;;;7.77;;
787;SDS011;16074;42.708;23.312;2023-07-31T13:08:27;8.37;;;7.77;;
787;SDS011;16074;42.708;23.312;2023-07-31T13:10:55;7.27;;;6.87;;
787;SDS011;16074;42.708;23.312;2023-07-31T13:13:23;7.33;;;6.80;;
787;SDS011;16074;42.708;23.312;2023-07-31T13:15:51;7.50;;;7.10;;
787;SDS011;16074;42.708;23.312;2023-07-31T13:18:20;8.80;;;8.20;;
787;SDS011;16074;42.708;23.312;2023-07-31T13:20:49;7.10;;;6.60;;
787;SDS011;16074;42.708;23.312;2023-07-31T13:23:18;6.87;;;6.47;;
787;SDS011;16074;42.708;23.312;2023-07-31T13:25:46;6.90;;;6.40;;
787;SDS011;16074;42.708;23.312;2023-07-31T13:28:14;7.73;;;6.97;;
787;SDS011;16074;42.708;23.312;2023-07-31T13:30:43;6.87;;;6.47;;
787;SDS011;16074;42.708;23.312;2023-07-31T13:33:12;7.20;;;6.80;;
787;SDS011;16074;42.708;23.312;2023-07-31T13:36:01;7.80;;;7.30;;
787;SDS011;16074;42.708;23.312;2023-07-31T13:38:30;7.50;;;6.80;;
787;SDS011;16074;42.708;23.312;2023-07-31T13:40:58;7.30;;;6.60;;
787;SDS011;16074;42.708;23.312;2023-07-31T13:43:26;7.23;;;6.60;;
787;SDS011;16074;42.708;23.312;2023-07-31T13:45:55;5.90;;;5.60;;
787;SDS011;16074;42.708;23.312;2023-07-31T13:48:23;6.50;;;6.07;;
787;SDS011;16074;42.708;23.312;2023-07-31T13:50:51;6.03;;;5.63;;
787;SDS011;16074;42.708;23.312;2023-07-31T13:53:21;6.40;;;6.10;;
787;SDS011;16074;42.708;23.312;2023-07-31T13:55:49;6.63;;;6.20;;
787;SDS011;16074;42.708;23.312;2023-07-31T13:58:18;6.33;;;5.93;;
787;SDS011;16074;42.708;23.312;2023-07-31T14:00:46;6.63;;;6.23;;
787;SDS011;16074;42.708;23.312;2023-07-31T14:03:14;6.03;;;5.73;;
787;SDS011;16074;42.708;23.312;2023-07-31T14:05:43;6.40;;;6.10;;
787;SDS011;16074;42.708;23.312;2023-07-31T14:08:11;6.57;;;6.17;;
787;SDS011;16074;42.708;23.312;2023-07-31T14:10:41;7.10;;;6.60;;
787;SDS011;16074;42.708;23.312;2023-07-31T14:13:09;7.00;;;6.30;;
787;SDS011;16074;42.708;23.312;2023-07-31T14:15:37;6.87;;;6.50;;
787;SDS011;16074;42.708;23.312;2023-07-31T14:18:05;6.43;;;6.03;;
787;SDS011;16074;42.708;23.312;2023-07-31T14:20:34;6.73;;;6.33;;
787;SDS011;16074;42.708;23.312;2023-07-31T14:23:02;6.70;;;6.30;;
787;SDS011;16074;42.708;23.312;2023-07-31T14:25:31;6.80;;;6.33;;
787;SDS011;16074;42.708;23.312;2023-07-31T14:28:01;6.17;;;5.77;;
787;SDS011;16074;42.708;23.312;2023-07-31T14:30:29;6.00;;;5.50;;
787;SDS011;16074;42.708;23.312;2023-07-31T14:32:58;6.87;;;6.37;;
787;SDS011;16074;42.708;23.312;2023-07-31T14:35:27;6.40;;;6.00;;
787;SDS011;16074;42.708;23.312;2023-07-31T14:37:55;6.60;;;6.00;;
787;SDS011;16074;42.708;23.312;2023-07-31T14:40:23;7.00;;;6.60;;
787;SDS011;16074;42.708;23.312;2023-07-31T14:42:52;6.23;;;5.83;;
787;SDS011;16074;42.708;23.312;2023-07-31T14:45:21;6.00;;;5.70;;
787;SDS011;16074;42.708;23.312;2023-07-31T14:47:50;6.97;;;6.40;;
787;SDS011;16074;42.708;23.312;2023-07-31T14:50:19;6.37;;;6.07;;
787;SDS011;16074;42.708;23.312;2023-07-31T14:52:48;6.23;;;5.83;;
787;SDS011;16074;42.708;23.312;2023-07-31T14:55:16;5.90;;;5.50;;
787;SDS011;16074;42.708;23.312;2023-07-31T14:57:44;6.30;;;5.60;;
787;SDS011;16074;42.708;23.312;2023-07-31T15:00:13;5.40;;;5.10;;
787;SDS011;16074;42.708;23.312;2023-07-31T15:02:43;4.53;;;4.33;;